Garland, Texas
Current Conditions -  °F | °C
As of 3:35 AM on Thursday 27 Nov 2014 (Local Time) from KADS Reporting Station
Clear Clear  
Wind Chill: 38°   Ceiling: Unl
Heat Index: 41°   Visibility: 10mi
Dew Point: 31°   Wind: 5mph
Humidity: 67%   Direction: 350°N
Pressure: 30.49"   Gusts: NA
Location:  32.91°N, 96.64°W
Report Text: KADS 270935Z AUTO 35004KT 10SM CLR 05/00 A3049 RMK AO2 T00511005
Loading
Personal Weather Stations






























Interactive Weather Map New forecast layout! Learn more

10-Day Weather Forecast

Advertisements
Track Severe Weather on mobile